Time;durP1;ratioP1;P1;durP2;ratioP2;P2;SDS_P1;SDS_P2;PMS_P1;PMS_P2;Temp;Humidity;BMP_temperature;BMP_pressure;BME280_temperature;BME280_humidity;BME280_pressure;Samples;Min_cycle;Max_cycle;Signal;HPM_P1;HPM_P2
2023/01/21 00:01:47;;;;;;;27.73;15.77;;;0.80;99.90;;;;;;4975118;28;20211;-70
2023/01/21 00:04:12;;;;;;;20.07;13.77;;;0.80;99.90;;;;;;4982013;28;20195;-69
2023/01/21 00:06:38;;;;;;;23.93;12.50;;;0.80;99.90;;;;;;4983021;28;20192;-69
2023/01/21 00:09:04;;;;;;;25.53;14.37;;;0.80;99.90;;;;;;4983199;28;20532;-67
2023/01/21 00:11:29;;;;;;;30.27;14.67;;;0.80;99.90;;;;;;4984100;28;20197;-68
2023/01/21 00:13:56;;;;;;;19.97;13.73;;;0.80;99.90;;;;;;4984726;28;20315;-68
2023/01/21 00:16:22;;;;;;;18.87;13.87;;;0.80;99.90;;;;;;4974658;28;20184;-68
2023/01/21 00:18:48;;;;;;;21.93;12.53;;;0.80;99.90;;;;;;4956406;28;20355;-68
2023/01/21 00:21:13;;;;;;;25.93;15.53;;;0.80;99.90;;;;;;4974982;28;20283;-69
2023/01/21 00:23:39;;;;;;;23.97;14.53;;;0.70;99.90;;;;;;4971414;28;20203;-69
2023/01/21 00:26:07;;;;;;;25.93;14.73;;;0.70;99.90;;;;;;4974153;28;20197;-69
2023/01/21 00:28:34;;;;;;;35.13;23.17;;;0.80;99.90;;;;;;4973926;28;20189;-69
2023/01/21 00:31:02;;;;;;;21.90;15.93;;;0.70;99.90;;;;;;4973990;28;20193;-68
2023/01/21 00:33:28;;;;;;;23.73;15.30;;;0.70;99.90;;;;;;4981359;28;20208;-69
2023/01/21 00:35:59;;;;;;;27.63;16.23;;;0.80;99.90;;;;;;4982515;28;20192;-69
2023/01/21 00:38:25;;;;;;;22.30;14.10;;;0.80;99.90;;;;;;4980838;28;20290;-69
2023/01/21 00:40:51;;;;;;;18.37;13.90;;;0.80;99.90;;;;;;4973800;28;20216;-68
2023/01/21 00:43:16;;;;;;;20.73;12.10;;;0.70;99.90;;;;;;4967256;28;20196;-69
2023/01/21 00:45:42;;;;;;;29.40;17.10;;;0.60;99.90;;;;;;4980633;28;20194;-69
2023/01/21 00:48:08;;;;;;;24.70;14.90;;;0.60;99.90;;;;;;4980911;28;20192;-69
2023/01/21 00:50:33;;;;;;;23.30;14.33;;;0.60;99.90;;;;;;4978972;28;20263;-69
2023/01/21 00:52:59;;;;;;;26.03;15.93;;;0.60;99.90;;;;;;5002950;28;20557;-69
2023/01/21 00:55:24;;;;;;;24.50;14.30;;;0.60;99.90;;;;;;4992824;28;20202;-69
2023/01/21 00:57:51;;;;;;;28.73;17.13;;;0.60;99.90;;;;;;4990972;28;20230;-69
2023/01/21 01:00:18;;;;;;;23.17;14.77;;;0.90;99.90;;;;;;4986958;28;20201;-68
2023/01/21 01:02:44;;;;;;;25.80;16.73;;;0.80;99.90;;;;;;4976664;28;20192;-69
2023/01/21 01:05:10;;;;;;;23.20;14.80;;;0.60;99.90;;;;;;4977442;28;20247;-69
2023/01/21 01:07:35;;;;;;;23.97;15.43;;;0.60;99.90;;;;;;4976664;28;20185;-69
2023/01/21 01:10:01;;;;;;;35.00;19.20;;;0.60;99.90;;;;;;4964590;28;20181;-69
2023/01/21 01:12:28;;;;;;;21.60;14.43;;;0.50;99.90;;;;;;4964955;28;20228;-69
2023/01/21 01:14:53;;;;;;;26.97;15.70;;;0.50;99.90;;;;;;4976823;28;20184;-69
2023/01/21 01:17:19;;;;;;;26.70;15.60;;;0.50;99.90;;;;;;4989232;28;20199;-69
2023/01/21 01:19:45;;;;;;;21.97;16.53;;;0.60;99.90;;;;;;4979731;28;20188;-69
2023/01/21 01:22:10;;;;;;;31.57;19.27;;;0.50;99.90;;;;;;4986856;28;20199;-69
2023/01/21 01:24:36;;;;;;;25.53;16.23;;;0.40;99.90;;;;;;4994425;28;20204;-69
2023/01/21 01:27:01;;;;;;;27.70;16.80;;;0.40;99.90;;;;;;4986532;28;20196;-69
2023/01/21 01:29:27;;;;;;;28.40;18.63;;;0.40;99.90;;;;;;4989098;28;20551;-69
2023/01/21 01:31:53;;;;;;;32.83;16.80;;;0.30;99.90;;;;;;4990291;28;20188;-69
2023/01/21 01:34:19;;;;;;;26.90;18.97;;;0.30;99.90;;;;;;4987613;28;20563;-69
2023/01/21 01:36:44;;;;;;;32.63;18.37;;;0.50;99.90;;;;;;4988983;28;20188;-69
2023/01/21 01:39:10;;;;;;;31.07;17.57;;;0.60;99.90;;;;;;4988798;28;20231;-69
2023/01/21 01:41:36;;;;;;;31.50;16.77;;;0.50;99.90;;;;;;4986841;28;20546;-69
2023/01/21 01:44:05;;;;;;;27.13;18.50;;;0.40;99.90;;;;;;4987139;28;20594;-69
2023/01/21 01:46:34;;;;;;;27.77;15.97;;;0.40;99.90;;;;;;4977905;28;20555;-69
2023/01/21 01:49:14;;;;;;;27.43;16.83;;;0.40;99.90;;;;;;4980337;28;20660;-69
2023/01/21 01:51:49;;;;;;;31.80;15.07;;;0.40;99.90;;;;;;4989790;28;20609;-69
2023/01/21 01:54:21;;;;;;;27.33;15.07;;;0.30;99.90;;;;;;4994504;28;20179;-69
2023/01/21 01:56:49;;;;;;;20.90;11.50;;;0.20;99.90;;;;;;4989392;28;20208;-69
2023/01/21 01:59:15;;;;;;;29.57;17.10;;;0.30;99.90;;;;;;4990047;28;20204;-69
2023/01/21 02:01:41;;;;;;;25.87;17.90;;;0.20;99.90;;;;;;4981261;28;20625;-69
2023/01/21 02:04:12;;;;;;;27.50;14.60;;;0.20;99.90;;;;;;4975875;28;20275;-69
2023/01/21 02:06:39;;;;;;;31.13;14.27;;;0.30;99.90;;;;;;4989940;28;20212;-69
2023/01/21 02:09:05;;;;;;;30.83;17.37;;;0.30;99.90;;;;;;4982409;28;20226;-69
2023/01/21 02:11:35;;;;;;;30.07;17.00;;;0.30;99.90;;;;;;4983557;28;20199;-69
2023/01/21 02:14:02;;;;;;;31.97;16.57;;;0.30;99.90;;;;;;4981537;28;20185;-69
2023/01/21 02:16:42;;;;;;;32.80;17.60;;;0.20;99.90;;;;;;4986924;28;20204;-69
2023/01/21 02:19:27;;;;;;;30.23;16.67;;;0.20;99.90;;;;;;4975762;28;20212;-69
2023/01/21 02:22:23;;;;;;;23.63;15.93;;;0.10;99.90;;;;;;4958700;28;20627;-69
2023/01/21 02:25:10;;;;;;;31.90;16.97;;;0.10;99.90;;;;;;4976177;28;20186;-69
2023/01/21 02:27:54;;;;;;;31.57;20.70;;;0.20;99.90;;;;;;4975615;28;20231;-69
2023/01/21 02:30:57;;;;;;;35.00;21.80;;;0.30;99.90;;;;;;4974979;28;20196;-69
2023/01/21 02:33:32;;;;;;;32.03;18.27;;;0.10;99.90;;;;;;4981680;28;20181;-69
2023/01/21 02:36:16;;;;;;;39.13;19.53;;;0.00;99.90;;;;;;4987618;28;20219;-69
2023/01/21 02:38:56;;;;;;;34.00;18.00;;;0.00;99.90;;;;;;4978747;28;20776;-69
2023/01/21 02:41:33;;;;;;;26.17;17.67;;;-0.10;99.90;;;;;;4984412;28;20191;-69
2023/01/21 02:44:11;;;;;;;28.43;18.57;;;-0.10;99.90;;;;;;4988212;28;20677;-69
2023/01/21 02:46:49;;;;;;;34.47;17.30;;;0.10;99.90;;;;;;4974250;28;20231;-69
2023/01/21 02:49:28;;;;;;;35.60;19.17;;;0.10;99.90;;;;;;4980522;28;20195;-69
2023/01/21 02:51:53;;;;;;;27.53;17.43;;;0.10;99.90;;;;;;4979116;28;20207;-69
2023/01/21 02:54:37;;;;;;;43.13;20.43;;;0.20;99.90;;;;;;4993469;28;20184;-69
2023/01/21 02:57:05;;;;;;;33.67;19.37;;;0.20;99.90;;;;;;4980103;28;20662;-69
2023/01/21 02:59:31;;;;;;;35.40;20.93;;;0.10;99.90;;;;;;4975844;28;20212;-69
2023/01/21 03:02:16;;;;;;;34.33;22.07;;;0.00;99.90;;;;;;4974363;28;20189;-69
2023/01/21 03:05:12;;;;;;;45.57;21.10;;;0.10;99.90;;;;;;4986761;28;20189;-69
2023/01/21 03:07:54;;;;;;;33.30;18.77;;;0.00;99.90;;;;;;4984028;28;20643;-69
2023/01/21 03:10:30;;;;;;;41.63;18.80;;;0.00;99.90;;;;;;4982729;28;20207;-69
2023/01/21 03:18:59;;;;;;;33.43;19.37;;;0.00;99.90;;;;;;4992719;28;20222;-69
2023/01/21 03:21:27;;;;;;;41.23;22.07;;;0.10;99.90;;;;;;4991609;28;20255;-69
2023/01/21 03:23:54;;;;;;;35.83;21.70;;;0.00;99.90;;;;;;4984919;28;20220;-69
2023/01/21 03:26:35;;;;;;;21.93;13.27;;;0.00;99.90;;;;;;4977400;28;20202;-69
2023/01/21 03:29:08;;;;;;;37.13;18.10;;;-0.20;99.90;;;;;;4983415;28;20274;-70
2023/01/21 03:31:38;;;;;;;39.67;21.47;;;-0.20;99.90;;;;;;4974686;28;20653;-70
2023/01/21 03:34:09;;;;;;;38.10;23.03;;;-0.20;99.90;;;;;;4977069;28;20176;-69
2023/01/21 03:36:51;;;;;;;34.73;19.03;;;-0.10;99.90;;;;;;4983012;28;20184;-70
2023/01/21 03:39:31;;;;;;;40.47;17.83;;;-0.10;99.90;;;;;;4974253;28;20745;-70
2023/01/21 03:41:57;;;;;;;25.13;16.30;;;-0.10;99.90;;;;;;4974557;28;20200;-70
2023/01/21 03:44:24;;;;;;;40.97;23.03;;;-0.10;99.90;;;;;;4987132;28;20581;-70
2023/01/21 03:47:01;;;;;;;39.03;24.23;;;0.00;99.90;;;;;;4983316;28;20193;-70
2023/01/21 03:49:31;;;;;;;39.30;19.50;;;-0.10;99.90;;;;;;4984557;28;20187;-70
2023/01/21 03:51:59;;;;;;;27.73;16.93;;;0.00;99.90;;;;;;4987407;28;20193;-70
2023/01/21 03:54:25;;;;;;;38.27;23.40;;;0.00;99.90;;;;;;5000074;28;20186;-70
2023/01/21 03:56:51;;;;;;;44.03;20.17;;;0.00;99.90;;;;;;4973850;28;20547;-70
2023/01/21 03:59:17;;;;;;;39.97;24.20;;;-0.10;99.90;;;;;;4981449;28;20208;-70
2023/01/21 04:01:42;;;;;;;47.40;20.90;;;-0.20;99.90;;;;;;4975148;28;20247;-70
2023/01/21 04:04:09;;;;;;;33.57;19.67;;;-0.20;99.90;;;;;;4991040;28;20185;-70
2023/01/21 04:06:35;;;;;;;25.53;17.07;;;-0.20;99.90;;;;;;4974118;28;20188;-70
2023/01/21 04:09:06;;;;;;;36.87;19.50;;;-0.20;99.90;;;;;;4973718;28;20197;-70
2023/01/21 04:11:32;;;;;;;29.60;16.80;;;-0.40;99.90;;;;;;4976141;28;20339;-70
2023/01/21 04:13:58;;;;;;;38.80;18.67;;;-0.30;99.90;;;;;;4974709;28;20220;-71
2023/01/21 04:16:24;;;;;;;35.73;18.93;;;-0.40;99.90;;;;;;4973320;28;20255;-70
2023/01/21 04:18:50;;;;;;;43.10;18.10;;;-0.40;99.90;;;;;;4973596;28;20577;-71
2023/01/21 04:21:15;;;;;;;29.97;17.83;;;-0.40;99.90;;;;;;4986607;28;20200;-70
2023/01/21 04:23:41;;;;;;;28.20;16.93;;;-0.40;99.90;;;;;;4974206;28;20180;-70
2023/01/21 04:26:07;;;;;;;33.10;13.70;;;-0.40;99.90;;;;;;4973292;28;20192;-70
2023/01/21 04:28:33;;;;;;;40.20;17.00;;;-0.40;99.90;;;;;;4972765;28;20275;-70
2023/01/21 04:30:59;;;;;;;43.40;20.20;;;-0.40;99.90;;;;;;4974554;28;20236;-70
2023/01/21 04:33:25;;;;;;;41.67;20.27;;;-0.40;99.90;;;;;;4984799;28;20188;-70
2023/01/21 04:35:55;;;;;;;30.17;15.70;;;-0.50;99.90;;;;;;4981087;28;20649;-70
2023/01/21 04:38:21;;;;;;;28.77;14.70;;;-0.50;99.90;;;;;;4985158;28;20251;-70
2023/01/21 04:40:46;;;;;;;20.63;14.80;;;-0.60;99.90;;;;;;4977234;28;20228;-70
2023/01/21 04:43:12;;;;;;;28.97;15.47;;;-0.60;99.90;;;;;;4983332;28;20547;-70
2023/01/21 04:45:38;;;;;;;35.83;21.43;;;-0.50;99.90;;;;;;4980763;28;20192;-70
2023/01/21 04:48:03;;;;;;;26.90;12.60;;;-0.50;99.90;;;;;;4966573;28;20224;-70
2023/01/21 04:50:29;;;;;;;18.37;11.57;;;-0.50;99.90;;;;;;4980142;28;20193;-70
2023/01/21 04:52:54;;;;;;;35.13;19.50;;;-0.40;99.90;;;;;;4977359;28;20212;-70
2023/01/21 04:55:20;;;;;;;30.30;15.00;;;-0.40;99.90;;;;;;4993813;28;20199;-70
2023/01/21 04:57:46;;;;;;;31.20;15.27;;;-0.50;99.90;;;;;;4976996;28;20597;-70
2023/01/21 05:00:12;;;;;;;29.57;15.60;;;-0.50;99.90;;;;;;4986947;28;20243;-71
2023/01/21 05:02:37;;;;;;;35.53;18.53;;;-0.60;99.90;;;;;;4981977;28;20195;-71
2023/01/21 05:05:03;;;;;;;34.60;18.07;;;-0.60;99.90;;;;;;4986786;28;20540;-71
2023/01/21 05:07:29;;;;;;;39.10;21.23;;;-0.50;99.90;;;;;;4982707;28;20339;-71
2023/01/21 05:09:55;;;;;;;45.93;22.53;;;-0.50;99.90;;;;;;4977310;28;20694;-71
2023/01/21 05:12:20;;;;;;;23.37;15.03;;;-0.60;99.90;;;;;;4976480;28;20193;-71
2023/01/21 05:14:46;;;;;;;33.77;18.23;;;-0.60;99.90;;;;;;4977024;28;20526;-71
2023/01/21 05:17:12;;;;;;;48.47;22.00;;;-0.70;99.90;;;;;;4978490;28;20684;-71
2023/01/21 05:19:37;;;;;;;36.57;19.10;;;-0.70;99.90;;;;;;4976652;28;20213;-71
2023/01/21 05:22:03;;;;;;;39.67;21.87;;;-0.60;99.90;;;;;;4978741;28;20642;-71
2023/01/21 05:24:30;;;;;;;37.90;22.00;;;-0.60;99.90;;;;;;4960569;28;20287;-73
2023/01/21 05:26:55;;;;;;;53.80;29.37;;;-0.60;99.90;;;;;;4988074;28;20192;-73
2023/01/21 05:29:21;;;;;;;60.10;29.17;;;-0.60;99.90;;;;;;4977025;28;20295;-74
2023/01/21 05:31:46;;;;;;;62.33;29.93;;;-0.50;99.90;;;;;;4980876;28;20670;-72
2023/01/21 05:34:12;;;;;;;34.70;22.00;;;-0.50;99.90;;;;;;4975959;28;20185;-74
2023/01/21 05:36:38;;;;;;;45.77;19.93;;;-0.40;99.90;;;;;;4977036;28;20196;-73
2023/01/21 05:39:04;;;;;;;60.87;26.27;;;-0.50;99.90;;;;;;4980197;28;20657;-73
2023/01/21 05:41:30;;;;;;;40.77;22.70;;;-0.60;99.90;;;;;;4992169;28;20204;-73
2023/01/21 05:43:56;;;;;;;47.23;27.33;;;-0.60;99.90;;;;;;4974968;28;20189;-73
2023/01/21 05:46:21;;;;;;;47.73;24.27;;;-0.60;99.90;;;;;;4977521;28;20189;-73
2023/01/21 05:48:47;;;;;;;36.77;20.90;;;-0.50;99.90;;;;;;4977177;28;20196;-73
2023/01/21 05:51:13;;;;;;;38.73;20.03;;;-0.40;99.90;;;;;;4976360;28;20192;-73
2023/01/21 05:53:38;;;;;;;41.20;23.27;;;-0.30;99.90;;;;;;4980924;28;20325;-74
2023/01/21 05:56:04;;;;;;;33.60;21.47;;;-0.50;99.90;;;;;;4986920;28;20236;-73
2023/01/21 05:58:30;;;;;;;41.77;20.27;;;-0.40;99.90;;;;;;4976353;28;20282;-72
2023/01/21 06:00:57;;;;;;;32.67;21.70;;;-0.60;99.90;;;;;;4976278;28;20555;-74
2023/01/21 06:03:23;;;;;;;38.47;21.47;;;-0.50;99.90;;;;;;4988856;28;20195;-73
2023/01/21 06:05:49;;;;;;;45.93;24.00;;;-0.60;99.90;;;;;;4976851;28;20324;-74
2023/01/21 06:08:16;;;;;;;37.30;21.97;;;-0.50;99.90;;;;;;4981859;28;20207;-75
2023/01/21 06:10:41;;;;;;;34.37;19.37;;;-0.50;99.90;;;;;;4993133;28;20258;-76
2023/01/21 06:13:10;;;;;;;37.00;23.60;;;-0.50;99.90;;;;;;4987200;28;20585;-77
2023/01/21 06:15:36;;;;;;;31.13;20.97;;;-0.50;99.90;;;;;;4985479;28;20709;-75
2023/01/21 06:18:02;;;;;;;38.87;21.00;;;-0.40;99.90;;;;;;4975527;28;20327;-73
2023/01/21 06:20:30;;;;;;;36.80;18.40;;;-0.50;99.90;;;;;;4966390;28;20279;-79
2023/01/21 06:22:57;;;;;;;35.63;18.20;;;-0.60;99.90;;;;;;4978112;28;20188;-73
2023/01/21 06:25:24;;;;;;;32.07;19.70;;;-0.70;99.90;;;;;;4975344;28;20301;-76
2023/01/21 06:27:52;;;;;;;43.00;19.37;;;-0.80;99.90;;;;;;4976995;28;20184;-76
2023/01/21 06:30:18;;;;;;;30.70;20.73;;;-0.80;99.90;;;;;;4974411;28;20656;-75
2023/01/21 06:32:44;;;;;;;46.27;22.10;;;-0.80;99.90;;;;;;4970586;28;20283;-75
2023/01/21 06:35:09;;;;;;;37.67;18.70;;;-0.80;99.90;;;;;;4968089;28;20189;-75
2023/01/21 06:37:35;;;;;;;41.50;20.50;;;-0.80;99.90;;;;;;4983339;28;20185;-77
2023/01/21 06:40:00;;;;;;;28.50;19.03;;;-0.80;99.90;;;;;;4974309;28;20197;-76
2023/01/21 06:42:26;;;;;;;26.47;15.13;;;-0.80;99.90;;;;;;4987724;28;20184;-78
2023/01/21 06:44:52;;;;;;;32.20;19.60;;;-0.80;99.90;;;;;;4992318;28;20242;-77
2023/01/21 06:47:17;;;;;;;27.77;16.03;;;-0.90;99.90;;;;;;4980574;28;20203;-78
2023/01/21 06:49:43;;;;;;;33.20;19.53;;;-0.90;99.90;;;;;;4985786;28;20192;-78
2023/01/21 06:52:09;;;;;;;40.77;23.37;;;-0.80;99.90;;;;;;4976092;28;20197;-77
2023/01/21 06:54:34;;;;;;;47.00;22.13;;;-0.80;99.90;;;;;;4980233;28;20200;-77
2023/01/21 06:57:00;;;;;;;37.33;15.00;;;-0.70;99.90;;;;;;4984158;28;20625;-78
2023/01/21 06:59:26;;;;;;;31.93;16.27;;;-0.70;99.90;;;;;;4972458;28;20220;-79
2023/01/21 07:01:52;;;;;;;31.17;17.20;;;-0.70;99.90;;;;;;4978692;28;20204;-77
2023/01/21 07:04:17;;;;;;;30.60;15.43;;;-0.80;99.90;;;;;;4989117;28;20264;-79
2023/01/21 07:06:43;;;;;;;32.17;21.67;;;-0.90;99.90;;;;;;4974920;28;20296;-79
2023/01/21 07:09:10;;;;;;;33.40;17.00;;;-0.90;99.90;;;;;;4982959;28;20191;-78
2023/01/21 07:11:35;;;;;;;29.97;16.53;;;-0.80;99.90;;;;;;4987603;28;20181;-78
2023/01/21 07:14:01;;;;;;;37.47;19.93;;;-0.80;99.90;;;;;;4987146;28;20544;-75
2023/01/21 07:16:26;;;;;;;37.63;20.00;;;-0.80;99.90;;;;;;4979315;28;20188;-77
2023/01/21 07:18:52;;;;;;;34.63;18.60;;;-0.90;99.90;;;;;;4974402;28;20227;-77
2023/01/21 07:21:18;;;;;;;28.03;15.43;;;-0.90;99.90;;;;;;4992190;28;20188;-74
2023/01/21 07:23:45;;;;;;;37.77;20.13;;;-0.90;99.90;;;;;;4974709;28;20219;-79
2023/01/21 07:26:10;;;;;;;29.97;19.50;;;-1.00;99.90;;;;;;4990537;28;20207;-78
2023/01/21 07:28:36;;;;;;;40.53;18.43;;;-1.10;99.90;;;;;;4978137;28;20675;-78
2023/01/21 07:31:02;;;;;;;38.27;18.47;;;-1.10;99.90;;;;;;4990794;28;20648;-77
2023/01/21 07:33:29;;;;;;;38.50;22.83;;;-1.10;99.90;;;;;;4981250;28;20548;-78
2023/01/21 07:35:55;;;;;;;35.60;19.73;;;-1.10;99.90;;;;;;4987161;28;20300;-79
2023/01/21 07:38:21;;;;;;;42.27;20.43;;;-1.10;99.90;;;;;;4987350;28;20231;-75
2023/01/21 07:40:48;;;;;;;38.03;20.90;;;-1.00;99.90;;;;;;4990823;28;20192;-78
2023/01/21 07:43:14;;;;;;;40.27;25.63;;;-1.10;99.90;;;;;;4991795;28;20207;-78
2023/01/21 07:45:39;;;;;;;36.97;21.97;;;-1.10;99.90;;;;;;4973563;28;20246;-78
2023/01/21 07:48:05;;;;;;;28.97;17.30;;;-1.10;99.90;;;;;;4974079;28;20200;-77
2023/01/21 07:50:31;;;;;;;32.07;18.40;;;-1.10;99.90;;;;;;4979794;28;20183;-78
2023/01/21 07:52:58;;;;;;;43.00;20.00;;;-1.10;99.90;;;;;;4986411;28;20211;-78
2023/01/21 07:55:24;;;;;;;36.53;15.40;;;-1.00;99.90;;;;;;4981542;28;20184;-78
2023/01/21 07:57:50;;;;;;;41.10;24.13;;;-1.00;99.90;;;;;;4988087;28;20189;-78
2023/01/21 08:00:16;;;;;;;36.83;17.13;;;-1.00;99.90;;;;;;4983266;28;20326;-77
2023/01/21 08:02:42;;;;;;;30.97;18.33;;;-1.10;99.90;;;;;;4977722;28;20199;-78
2023/01/21 08:05:09;;;;;;;38.20;17.80;;;-1.00;99.90;;;;;;4987845;28;20542;-78
2023/01/21 08:07:35;;;;;;;29.33;17.83;;;-1.00;99.90;;;;;;4972833;28;20188;-79
2023/01/21 08:10:01;;;;;;;37.60;17.87;;;-0.90;99.90;;;;;;4973662;28;20701;-79
2023/01/21 08:12:26;;;;;;;25.50;13.40;;;-0.80;99.90;;;;;;4974037;28;20243;-79
2023/01/21 08:14:52;;;;;;;25.43;19.20;;;-0.80;99.90;;;;;;4972604;28;20287;-79
2023/01/21 08:17:18;;;;;;;21.10;13.83;;;-0.80;99.90;;;;;;4956576;28;20200;-78
2023/01/21 08:19:43;;;;;;;35.47;18.67;;;-0.70;99.90;;;;;;4973717;28;20208;-78
2023/01/21 08:22:09;;;;;;;39.30;15.53;;;-0.70;99.90;;;;;;4973786;28;20196;-76
2023/01/21 08:24:35;;;;;;;33.70;16.47;;;-0.80;99.90;;;;;;4976165;28;20193;-78
2023/01/21 08:27:00;;;;;;;38.03;18.67;;;-0.80;99.90;;;;;;4972544;28;20205;-78
2023/01/21 08:29:27;;;;;;;29.60;18.23;;;-0.90;99.90;;;;;;4964125;28;20657;-78
2023/01/21 08:31:52;;;;;;;27.37;16.90;;;-0.90;99.90;;;;;;4974358;28;20552;-79
2023/01/21 08:34:18;;;;;;;35.37;18.80;;;-0.90;99.90;;;;;;4987119;28;20263;-78
2023/01/21 08:36:44;;;;;;;35.30;14.60;;;-0.80;99.90;;;;;;4981512;28;20200;-79
2023/01/21 08:39:13;;;;;;;36.73;18.77;;;-0.80;99.90;;;;;;4973555;28;20577;-79
2023/01/21 08:41:39;;;;;;;38.07;17.40;;;-0.80;99.90;;;;;;4987875;28;20279;-79
2023/01/21 08:44:06;;;;;;;28.67;17.90;;;-0.70;99.90;;;;;;4987164;28;20279;-79
2023/01/21 08:46:32;;;;;;;30.70;17.53;;;-0.60;99.90;;;;;;4973791;28;20616;-75
2023/01/21 08:48:57;;;;;;;38.30;19.33;;;-0.60;99.90;;;;;;4979612;28;20211;-78
2023/01/21 08:51:23;;;;;;;36.33;21.80;;;-0.60;99.90;;;;;;4981699;28;20201;-78
2023/01/21 08:53:50;;;;;;;32.47;20.47;;;-0.70;99.90;;;;;;4955952;28;20212;-79
2023/01/21 08:56:16;;;;;;;36.43;20.67;;;-0.70;99.90;;;;;;4987619;28;20243;-79
2023/01/21 08:58:42;;;;;;;39.40;20.90;;;-0.70;99.90;;;;;;4974484;28;20208;-77
2023/01/21 09:01:09;;;;;;;39.77;22.90;;;-0.50;99.90;;;;;;4984893;28;20239;-77
2023/01/21 09:03:35;;;;;;;33.33;17.83;;;-0.50;99.90;;;;;;4980920;28;20192;-78
2023/01/21 09:06:02;;;;;;;35.27;16.97;;;-0.60;99.90;;;;;;4980046;28;20197;-78
2023/01/21 09:08:28;;;;;;;41.37;22.83;;;-0.50;99.90;;;;;;4976245;28;20197;-78
2023/01/21 09:11:01;;;;;;;27.30;15.10;;;-0.50;99.90;;;;;;4973104;28;20189;-77
2023/01/21 09:13:32;;;;;;;25.70;16.27;;;-0.60;99.90;;;;;;4974352;28;20185;-77
2023/01/21 09:15:59;;;;;;;43.20;23.37;;;-0.60;99.90;;;;;;4973111;28;20189;-78
2023/01/21 09:18:25;;;;;;;55.53;21.87;;;-0.40;99.90;;;;;;4973068;28;20649;-79
2023/01/21 09:20:51;;;;;;;30.70;17.20;;;-0.40;99.90;;;;;;4971783;28;20246;-77
2023/01/21 09:23:26;;;;;;;30.37;16.73;;;-0.40;99.90;;;;;;4976388;28;20547;-79
2023/01/21 09:26:14;;;;;;;45.73;18.13;;;-0.30;99.90;;;;;;4989072;28;20223;-78
2023/01/21 09:28:43;;;;;;;35.80;18.90;;;-0.20;99.90;;;;;;4977607;28;20212;-77
2023/01/21 09:31:15;;;;;;;39.83;18.10;;;-0.20;99.90;;;;;;4985358;28;20191;-77
2023/01/21 09:33:43;;;;;;;30.63;15.97;;;-0.10;99.90;;;;;;4993535;28;20222;-73
2023/01/21 09:36:13;;;;;;;31.97;17.90;;;-0.20;99.90;;;;;;4979503;28;20185;-77
2023/01/21 09:38:41;;;;;;;45.63;22.63;;;-0.20;99.90;;;;;;4990086;28;20306;-77
2023/01/21 09:41:36;;;;;;;40.87;20.10;;;-0.20;99.90;;;;;;4977007;28;20188;-77
2023/01/21 09:44:16;;;;;;;38.03;19.10;;;0.00;99.90;;;;;;4978401;28;20264;-79
2023/01/21 09:46:48;;;;;;;42.90;19.43;;;0.00;99.90;;;;;;4976026;28;20588;-80
2023/01/21 09:49:23;;;;;;;19.83;14.27;;;0.00;99.90;;;;;;4980535;28;20188;-80
2023/01/21 09:52:04;;;;;;;31.37;18.53;;;0.00;99.90;;;;;;4981087;28;20194;-77
2023/01/21 09:54:32;;;;;;;34.87;17.73;;;-0.10;99.90;;;;;;4990845;28;20188;-78
2023/01/21 09:57:22;;;;;;;33.00;18.77;;;0.00;99.90;;;;;;4976643;28;20312;-78
2023/01/21 09:59:53;;;;;;;34.07;19.13;;;0.10;99.90;;;;;;4976457;28;20739;-79
2023/01/21 10:02:41;;;;;;;32.90;17.43;;;0.10;99.90;;;;;;4985866;28;20184;-79
2023/01/21 10:05:23;;;;;;;39.20;19.07;;;0.10;99.90;;;;;;4985757;28;20303;-79
2023/01/21 10:08:33;;;;;;;30.67;20.03;;;0.20;99.90;;;;;;4984294;28;20204;-80
2023/01/21 10:11:05;;;;;;;30.90;19.90;;;0.20;99.90;;;;;;4952860;28;20199;-78
2023/01/21 10:14:02;;;;;;;46.17;21.17;;;0.20;99.90;;;;;;4987395;28;20652;-77
2023/01/21 10:16:42;;;;;;;18.10;14.00;;;0.20;99.90;;;;;;4982758;28;20187;-78
2023/01/21 10:19:15;;;;;;;34.17;20.47;;;0.20;99.90;;;;;;4992178;28;20740;-78
2023/01/21 10:21:54;;;;;;;47.13;20.60;;;0.30;99.90;;;;;;4984772;28;20188;-78
2023/01/21 10:24:25;;;;;;;38.93;20.10;;;0.30;99.90;;;;;;4990152;28;20187;-78
2023/01/21 10:26:53;;;;;;;28.30;18.47;;;0.40;99.90;;;;;;4984459;28;20180;-77
2023/01/21 10:29:22;;;;;;;41.07;21.80;;;0.30;99.90;;;;;;4976560;28;20547;-79
2023/01/21 10:31:58;;;;;;;38.40;22.60;;;0.30;99.90;;;;;;4981709;28;20549;-77
2023/01/21 10:34:28;;;;;;;38.60;20.33;;;0.40;99.90;;;;;;4976270;28;20564;-75
2023/01/21 10:37:10;;;;;;;53.47;24.43;;;0.40;99.90;;;;;;4982525;28;20196;-79
2023/01/21 10:40:04;;;;;;;40.10;17.10;;;0.50;99.90;;;;;;4975602;28;20735;-80
2023/01/21 10:42:46;;;;;;;37.40;21.93;;;0.60;99.90;;;;;;4971303;28;20203;-78
2023/01/21 10:45:34;;;;;;;41.20;21.63;;;0.70;99.90;;;;;;4982729;28;20250;-78
2023/01/21 10:48:09;;;;;;;38.93;20.73;;;0.80;99.90;;;;;;4975543;28;20231;-77
2023/01/21 10:51:03;;;;;;;44.70;22.03;;;1.00;99.90;;;;;;4979262;28;20180;-77
2023/01/21 10:53:37;;;;;;;36.60;20.30;;;1.10;99.90;;;;;;4976239;28;20704;-77
2023/01/21 10:56:40;;;;;;;38.30;20.83;;;1.00;99.90;;;;;;4973789;28;20184;-76
2023/01/21 10:59:16;;;;;;;46.20;24.23;;;1.00;99.90;;;;;;4971515;28;20307;-76
2023/01/21 11:01:46;;;;;;;36.07;19.70;;;1.10;99.90;;;;;;4981626;28;20195;-76
2023/01/21 11:04:23;;;;;;;45.13;25.63;;;1.10;99.90;;;;;;4974759;28;20181;-75
2023/01/21 11:07:00;;;;;;;41.07;19.47;;;1.10;99.90;;;;;;4975524;28;20181;-75
2023/01/21 11:09:30;;;;;;;36.90;18.20;;;1.00;99.90;;;;;;4980726;28;20184;-75
2023/01/21 11:11:56;;;;;;;47.57;23.83;;;1.00;99.90;;;;;;4981512;28;20184;-74
2023/01/21 11:14:26;;;;;;;45.00;23.00;;;1.00;99.90;;;;;;4988128;28;20547;-74
2023/01/21 11:16:53;;;;;;;50.17;26.33;;;1.20;99.90;;;;;;4973903;28;20197;-74
2023/01/21 11:19:30;;;;;;;39.90;21.00;;;1.50;99.90;;;;;;4976562;28;20208;-74
2023/01/21 11:22:16;;;;;;;51.90;24.33;;;1.60;99.90;;;;;;4975713;28;20188;-75
2023/01/21 11:24:44;;;;;;;40.17;21.23;;;1.90;99.90;;;;;;4974433;28;20185;-74
2023/01/21 11:27:38;;;;;;;39.43;21.87;;;1.70;99.90;;;;;;4974524;28;20200;-73
2023/01/21 11:30:06;;;;;;;36.73;20.23;;;1.40;99.90;;;;;;4974425;28;20195;-74
2023/01/21 11:32:32;;;;;;;41.60;22.30;;;1.40;99.90;;;;;;4974416;28;20533;-72
2023/01/21 11:35:20;;;;;;;40.80;21.53;;;1.40;99.90;;;;;;4974864;28;20282;-74
2023/01/21 11:37:46;;;;;;;52.90;24.00;;;1.50;99.90;;;;;;4981627;28;20676;-74
2023/01/21 11:40:21;;;;;;;38.07;19.17;;;1.60;99.90;;;;;;4985647;28;20192;-73
2023/01/21 11:42:55;;;;;;;38.70;22.27;;;1.50;99.90;;;;;;4989008;28;20183;-73
2023/01/21 11:45:30;;;;;;;33.93;18.57;;;1.50;99.90;;;;;;4983971;28;20688;-74
2023/01/21 11:47:57;;;;;;;43.17;22.27;;;1.50;99.90;;;;;;4983202;28;20188;-73
2023/01/21 11:50:36;;;;;;;39.83;21.40;;;1.50;99.90;;;;;;4988259;28;20633;-73
2023/01/21 11:53:16;;;;;;;35.50;20.23;;;1.50;99.90;;;;;;4988614;28;20204;-73
2023/01/21 11:55:53;;;;;;;34.77;19.57;;;1.60;99.90;;;;;;4990182;28;20233;-73
2023/01/21 11:58:39;;;;;;;44.23;19.63;;;1.70;99.90;;;;;;4974364;28;20218;-73
2023/01/21 12:01:17;;;;;;;37.87;19.70;;;1.80;99.90;;;;;;4974765;28;20634;-73
2023/01/21 12:03:49;;;;;;;36.87;21.13;;;1.60;99.90;;;;;;4973633;28;20233;-72
2023/01/21 12:06:24;;;;;;;56.50;19.07;;;1.70;99.90;;;;;;4974197;28;20193;-71
2023/01/21 12:08:54;;;;;;;33.93;18.63;;;1.70;99.90;;;;;;4973939;28;20556;-72
2023/01/21 12:11:23;;;;;;;42.67;19.37;;;1.70;99.90;;;;;;4978106;28;20184;-71
2023/01/21 12:13:51;;;;;;;33.10;20.93;;;1.70;99.90;;;;;;4977113;28;20327;-71
2023/01/21 12:16:29;;;;;;;43.90;20.23;;;1.60;99.90;;;;;;4974218;28;20244;-73
2023/01/21 12:19:16;;;;;;;46.60;23.50;;;1.50;99.90;;;;;;4974017;28;20207;-72
2023/01/21 12:22:13;;;;;;;27.83;21.40;;;1.50;99.90;;;;;;4972798;28;20646;-73
2023/01/21 12:25:03;;;;;;;45.97;26.47;;;1.50;99.90;;;;;;4973546;28;20197;-73
2023/01/21 12:27:46;;;;;;;31.33;18.13;;;1.50;99.90;;;;;;4973448;28;20191;-72
2023/01/21 12:30:33;;;;;;;40.10;22.27;;;1.50;99.90;;;;;;4973816;28;20185;-75
2023/01/21 12:33:12;;;;;;;40.97;21.37;;;1.60;99.90;;;;;;4973694;28;20180;-72
2023/01/21 12:35:45;;;;;;;51.13;23.77;;;1.50;99.90;;;;;;4988848;28;20184;-72
2023/01/21 12:38:39;;;;;;;47.50;24.87;;;1.80;99.90;;;;;;4990961;28;20204;-74
2023/01/21 12:41:19;;;;;;;42.53;22.00;;;1.90;99.90;;;;;;4971232;28;20733;-74
2023/01/21 12:43:49;;;;;;;35.83;20.77;;;1.60;99.90;;;;;;4973860;28;20189;-73
2023/01/21 12:46:40;;;;;;;44.63;25.23;;;1.20;99.90;;;;;;4973592;28;20189;-73
2023/01/21 12:49:26;;;;;;;52.10;22.90;;;1.00;99.90;;;;;;4979189;28;20183;-74
2023/01/21 12:51:58;;;;;;;48.83;23.23;;;1.00;99.90;;;;;;4981123;28;20201;-73
2023/01/21 12:54:45;;;;;;;45.30;22.87;;;0.90;99.90;;;;;;4976310;28;20716;-73